Time;durP1;ratioP1;P1;durP2;ratioP2;P2;SDS_P1;SDS_P2;PMS_P1;PMS_P2;Temp;Humidity;BMP_temperature;BMP_pressure;BME280_temperature;BME280_humidity;BME280_pressure;Samples;Min_cycle;Max_cycle;Signal;HPM_P1;HPM_P2
2022/12/03 00:02:10;;;;;;;7.18;1.35;;;26.20;57.40;;;;;;5009851;28;20030;-67
2022/12/03 00:04:37;;;;;;;3.38;1.00;;;27.10;57.80;;;;;;5008591;28;20395;-68
2022/12/03 00:07:04;;;;;;;10.20;1.70;;;27.80;54.90;;;;;;5009318;28;20065;-66
2022/12/03 00:09:32;;;;;;;9.40;2.45;;;28.30;51.70;;;;;;5009630;28;20104;-68
2022/12/03 00:11:59;;;;;;;5.80;1.83;;;28.50;49.60;;;;;;5009620;28;20026;-68
2022/12/03 00:14:26;;;;;;;8.65;1.40;;;28.30;51.50;;;;;;5008957;28;20053;-68
2022/12/03 00:16:54;;;;;;;2.63;0.90;;;28.30;50.30;;;;;;5009683;28;20538;-67
2022/12/03 00:19:21;;;;;;;5.13;1.08;;;27.90;50.40;;;;;;5009049;28;20038;-70
2022/12/03 00:21:48;;;;;;;3.13;1.08;;;27.80;50.20;;;;;;5009433;28;20026;-68
2022/12/03 00:24:15;;;;;;;6.28;1.45;;;27.90;50.50;;;;;;5009537;28;20494;-67
2022/12/03 00:26:42;;;;;;;4.88;1.45;;;27.50;49.20;;;;;;5009516;28;20411;-66
2022/12/03 00:29:10;;;;;;;4.53;1.10;;;26.80;50.20;;;;;;5008203;28;20053;-67
2022/12/03 00:31:37;;;;;;;6.32;1.45;;;26.60;52.10;;;;;;4997237;28;20036;-68
2022/12/03 00:34:04;;;;;;;6.43;1.05;;;26.30;51.20;;;;;;5004703;28;20144;-67
2022/12/03 00:36:31;;;;;;;5.78;1.05;;;25.90;54.00;;;;;;5010788;28;20026;-68
2022/12/03 00:38:58;;;;;;;5.68;1.20;;;25.80;52.50;;;;;;5009127;28;20029;-68
2022/12/03 00:41:26;;;;;;;6.75;1.70;;;25.60;51.40;;;;;;5008293;28;20038;-65
2022/12/03 00:43:56;;;;;;;4.18;1.00;;;25.50;52.10;;;;;;5008653;28;20032;-66
2022/12/03 00:46:27;;;;;;;6.10;1.23;;;25.10;52.90;;;;;;5010466;28;20041;-66
2022/12/03 00:48:54;;;;;;;3.97;1.02;;;25.20;53.50;;;;;;5010654;28;20053;-67
2022/12/03 00:51:21;;;;;;;5.10;1.35;;;25.60;51.20;;;;;;5010372;28;20034;-69
2022/12/03 00:53:48;;;;;;;2.40;1.10;;;26.20;53.40;;;;;;5009076;28;20022;-69
2022/12/03 00:56:15;;;;;;;2.95;0.98;;;27.20;53.60;;;;;;5010389;28;20037;-70
2022/12/03 00:58:43;;;;;;;3.60;1.02;;;28.20;55.60;;;;;;5009348;28;20112;-69
2022/12/03 01:01:10;;;;;;;5.32;1.05;;;29.00;49.20;;;;;;5007823;28;20141;-69
2022/12/03 01:03:37;;;;;;;4.50;1.10;;;29.60;47.40;;;;;;5009393;28;20112;-69
2022/12/03 01:06:04;;;;;;;3.67;1.30;;;29.30;46.60;;;;;;5010253;28;20065;-68
2022/12/03 01:08:32;;;;;;;4.05;1.15;;;29.40;45.90;;;;;;5009834;28;20040;-69
2022/12/03 01:10:59;;;;;;;3.15;1.45;;;29.80;44.40;;;;;;5008291;28;20052;-68
2022/12/03 01:13:26;;;;;;;3.20;0.85;;;30.20;47.30;;;;;;5011035;28;20487;-70
2022/12/03 01:15:53;;;;;;;3.38;1.00;;;29.60;45.80;;;;;;5013530;28;20104;-69
2022/12/03 01:18:21;;;;;;;3.20;1.38;;;29.40;46.10;;;;;;5025320;28;20049;-70
2022/12/03 01:20:48;;;;;;;4.00;1.05;;;29.80;51.70;;;;;;5011671;28;20034;-71
2022/12/03 01:23:15;;;;;;;5.50;1.15;;;30.50;50.00;;;;;;5012189;28;20029;-71
2022/12/03 01:25:42;;;;;;;2.75;0.63;;;30.60;46.30;;;;;;5007874;28;20037;-68
2022/12/03 01:28:10;;;;;;;3.35;0.85;;;30.50;43.90;;;;;;5012172;28;20018;-72
2022/12/03 01:32:15;;;;;;;4.38;1.45;;;30.80;42.90;;;;;;5011682;28;20030;-70
2022/12/03 01:33:24;;;;;;;1.85;0.88;;;31.00;43.50;;;;;;5011828;28;20486;-69
2022/12/03 01:35:51;;;;;;;6.93;1.00;;;31.40;43.20;;;;;;5010370;28;20477;-70
2022/12/03 01:38:18;;;;;;;3.67;1.00;;;31.30;46.80;;;;;;5011740;28;20022;-70
2022/12/03 01:40:45;;;;;;;4.03;1.17;;;31.30;43.30;;;;;;5011901;28;20486;-69
2022/12/03 01:43:12;;;;;;;3.15;0.80;;;30.70;43.60;;;;;;5011257;28;20125;-67
2022/12/03 01:45:40;;;;;;;5.50;1.20;;;30.70;44.20;;;;;;5011861;28;20128;-66
2022/12/03 01:48:09;;;;;;;5.32;1.52;;;31.20;45.60;;;;;;5011334;28;20061;-67
2022/12/03 01:50:37;;;;;;;3.42;0.85;;;31.70;46.00;;;;;;5011803;28;20022;-66
2022/12/03 01:53:04;;;;;;;5.03;1.13;;;32.60;46.50;;;;;;5011950;28;20136;-67
2022/12/03 01:55:31;;;;;;;3.55;1.00;;;32.40;43.00;;;;;;5012063;28;20061;-69
2022/12/03 01:58:01;;;;;;;3.05;1.00;;;32.80;46.40;;;;;;5011194;28;20101;-68
2022/12/03 02:00:29;;;;;;;4.60;1.00;;;32.90;41.80;;;;;;5010937;28;20044;-70
2022/12/03 02:03:00;;;;;;;5.68;1.38;;;33.10;43.80;;;;;;5006789;28;20109;-69
2022/12/03 02:05:30;;;;;;;6.88;1.17;;;33.00;40.20;;;;;;5011091;28;20040;-68
2022/12/03 02:07:58;;;;;;;3.38;1.75;;;33.10;45.70;;;;;;5010985;28;20189;-71
2022/12/03 02:10:35;;;;;;;4.65;1.58;;;33.40;43.70;;;;;;5011461;28;20053;-70
2022/12/03 02:13:11;;;;;;;4.40;1.30;;;33.50;42.30;;;;;;5011657;28;20480;-71
2022/12/03 02:15:39;;;;;;;3.83;1.13;;;33.10;41.90;;;;;;5020652;28;20053;-71
2022/12/03 02:18:08;;;;;;;4.70;1.20;;;32.80;39.30;;;;;;5018626;28;20064;-71
2022/12/03 02:20:50;;;;;;;3.92;1.00;;;32.20;41.80;;;;;;5010909;28;20033;-68
2022/12/03 02:23:44;;;;;;;4.00;1.00;;;32.10;41.10;;;;;;5010809;28;20108;-67
2022/12/03 02:26:11;;;;;;;3.92;1.00;;;31.40;42.50;;;;;;5000313;28;20053;-70
2022/12/03 02:28:38;;;;;;;5.57;1.35;;;31.50;41.80;;;;;;5000342;28;20030;-70
2022/12/03 02:31:06;;;;;;;6.38;1.40;;;30.70;40.60;;;;;;5002824;28;20852;-70
2022/12/03 02:33:33;;;;;;;4.07;1.58;;;30.30;42.00;;;;;;5007700;28;20022;-67
2022/12/03 02:36:01;;;;;;;7.68;1.33;;;30.60;45.60;;;;;;4999985;28;20064;-73
2022/12/03 02:38:31;;;;;;;7.53;1.75;;;29.80;46.30;;;;;;5000052;28;20017;-74
2022/12/03 02:41:04;;;;;;;7.43;2.10;;;29.60;48.10;;;;;;5001574;28;20030;-73
2022/12/03 02:43:31;;;;;;;5.88;1.48;;;29.30;46.40;;;;;;5000370;28;20032;-72
2022/12/03 02:46:01;;;;;;;4.68;1.10;;;29.00;45.90;;;;;;5004289;28;20029;-75
2022/12/03 02:48:39;;;;;;;4.18;1.27;;;28.60;46.70;;;;;;5006864;28;20387;-73
2022/12/03 02:51:08;;;;;;;7.80;1.13;;;28.30;47.00;;;;;;5004519;28;20088;-73
2022/12/03 02:53:43;;;;;;;6.03;1.40;;;28.50;47.40;;;;;;5000461;28;20504;-67
2022/12/03 02:56:13;;;;;;;5.32;1.80;;;28.50;47.00;;;;;;5017516;28;20026;-72
2022/12/03 02:58:43;;;;;;;7.68;1.58;;;28.30;47.00;;;;;;5005589;28;20073;-68
2022/12/03 03:01:11;;;;;;;4.57;1.40;;;27.90;46.60;;;;;;5029426;28;20030;-68
2022/12/03 03:03:39;;;;;;;6.22;1.35;;;28.00;46.20;;;;;;5001953;28;20081;-67
2022/12/03 03:06:07;;;;;;;5.55;1.27;;;28.60;46.70;;;;;;5006572;28;20052;-67
2022/12/03 03:08:37;;;;;;;7.32;1.35;;;28.80;49.50;;;;;;5007876;28;20018;-67
2022/12/03 03:11:04;;;;;;;6.15;1.55;;;28.90;49.00;;;;;;5009164;28;20108;-69
2022/12/03 03:13:33;;;;;;;6.25;1.60;;;28.30;48.90;;;;;;4997953;28;20026;-67
2022/12/03 03:16:02;;;;;;;8.82;1.73;;;27.70;49.80;;;;;;5010055;28;20513;-67
2022/12/03 03:18:30;;;;;;;6.10;1.42;;;27.10;53.70;;;;;;5008966;28;20034;-70
2022/12/03 03:20:58;;;;;;;5.05;1.30;;;27.20;55.20;;;;;;5010017;28;20128;-68
2022/12/03 03:23:25;;;;;;;5.68;1.52;;;27.30;54.10;;;;;;5010347;28;20080;-69
2022/12/03 03:26:07;;;;;;;4.57;1.38;;;27.60;54.20;;;;;;5012546;28;20029;-67
2022/12/03 03:28:42;;;;;;;5.30;1.52;;;28.30;53.70;;;;;;5006591;28;21467;-66
2022/12/03 03:31:13;;;;;;;9.82;1.77;;;28.50;54.00;;;;;;5002674;28;20068;-68
2022/12/03 03:33:42;;;;;;;7.70;1.30;;;28.40;54.00;;;;;;5010420;28;20036;-65
2022/12/03 03:36:10;;;;;;;6.35;1.02;;;27.60;53.70;;;;;;5002584;28;20084;-68
2022/12/03 03:38:38;;;;;;;6.63;1.75;;;27.20;54.00;;;;;;5001167;28;20088;-66
2022/12/03 03:41:07;;;;;;;10.43;1.90;;;26.50;55.40;;;;;;5003856;28;20076;-65
2022/12/03 03:43:37;;;;;;;3.80;1.13;;;26.50;57.40;;;;;;5005705;28;20022;-66
2022/12/03 03:46:08;;;;;;;5.00;1.33;;;27.00;56.00;;;;;;5009002;28;20513;-66
2022/12/03 03:48:43;;;;;;;4.82;0.95;;;27.30;55.90;;;;;;5005900;28;20022;-65
2022/12/03 03:51:11;;;;;;;4.03;1.35;;;27.70;54.00;;;;;;5003729;28;20073;-66
2022/12/03 03:53:42;;;;;;;5.38;1.98;;;28.20;53.40;;;;;;5005556;28;20026;-66
2022/12/03 03:56:10;;;;;;;8.27;2.05;;;28.30;53.00;;;;;;5009374;28;20080;-67
2022/12/03 03:58:37;;;;;;;6.68;1.42;;;28.20;52.80;;;;;;4999988;28;20048;-68
2022/12/03 04:01:05;;;;;;;8.15;1.75;;;28.30;52.10;;;;;;5007070;28;20037;-66
2022/12/03 04:03:33;;;;;;;7.65;1.50;;;28.10;53.50;;;;;;5006682;28;20073;-66
2022/12/03 04:06:00;;;;;;;3.53;1.17;;;27.30;53.80;;;;;;5008082;28;20117;-65
2022/12/03 04:08:27;;;;;;;7.28;1.58;;;26.90;54.80;;;;;;5010194;28;20387;-66
2022/12/03 04:13:39;;;;;;;6.80;1.63;;;26.60;56.50;;;;;;5009343;28;20037;-67
2022/12/03 04:16:07;;;;;;;6.50;1.20;;;26.20;56.70;;;;;;5007572;28;20030;-66
2022/12/03 04:18:43;;;;;;;5.70;1.77;;;26.30;57.70;;;;;;5010642;28;20029;-66
2022/12/03 04:24:03;;;;;;;8.30;1.30;;;26.80;55.50;;;;;;5010218;28;20117;-66
2022/12/03 04:29:16;;;;;;;5.43;1.10;;;27.30;54.50;;;;;;5008981;28;20119;-67
2022/12/03 04:37:14;;;;;;;6.32;1.45;;;27.40;54.80;;;;;;5008831;28;20157;-66
2022/12/03 04:39:42;;;;;;;4.47;1.60;;;27.00;53.90;;;;;;5008063;28;20073;-67
2022/12/03 04:42:09;;;;;;;3.58;1.40;;;26.70;55.00;;;;;;5008243;28;20184;-66
2022/12/03 04:44:37;;;;;;;4.40;1.77;;;26.70;54.50;;;;;;5008536;28;20022;-66
2022/12/03 04:47:12;;;;;;;4.70;1.60;;;26.10;55.50;;;;;;5008802;28;20030;-66
2022/12/03 04:49:47;;;;;;;6.75;2.13;;;25.60;57.50;;;;;;5006686;28;20030;-66
2022/12/03 04:52:16;;;;;;;6.13;1.98;;;25.60;57.30;;;;;;5008922;28;20030;-66
2022/12/03 04:54:44;;;;;;;6.45;1.98;;;26.00;57.70;;;;;;5010436;28;20540;-67
2022/12/03 04:57:11;;;;;;;7.72;2.95;;;26.20;56.70;;;;;;5011289;28;20053;-67
2022/12/03 04:59:39;;;;;;;6.15;2.60;;;26.40;56.10;;;;;;5010197;28;20053;-67
2022/12/03 05:02:07;;;;;;;15.02;2.70;;;26.80;55.80;;;;;;5011673;28;20387;-66
2022/12/03 05:04:34;;;;;;;8.07;2.75;;;26.90;54.40;;;;;;5012006;28;20109;-67
2022/12/03 05:07:02;;;;;;;5.43;2.72;;;26.90;55.90;;;;;;5010003;28;20045;-67
2022/12/03 05:09:29;;;;;;;5.82;2.33;;;26.80;56.50;;;;;;5011866;28;20025;-67
2022/12/03 05:11:56;;;;;;;7.60;3.05;;;26.90;54.70;;;;;;5011517;28;20294;-66
2022/12/03 05:14:24;;;;;;;7.35;2.75;;;26.70;55.50;;;;;;5011010;28;20152;-67
2022/12/03 05:16:51;;;;;;;6.47;2.30;;;26.80;54.50;;;;;;5011862;28;20109;-67
2022/12/03 05:19:18;;;;;;;6.90;3.05;;;26.60;55.20;;;;;;5009463;28;20080;-66
2022/12/03 05:21:45;;;;;;;9.88;2.53;;;26.40;55.30;;;;;;5010928;28;20164;-67
2022/12/03 05:24:13;;;;;;;5.93;2.35;;;26.00;55.10;;;;;;5009635;28;20026;-66
2022/12/03 05:26:40;;;;;;;6.63;2.42;;;25.90;56.10;;;;;;5009569;28;20079;-66
2022/12/03 05:29:07;;;;;;;10.38;3.70;;;25.90;56.40;;;;;;5008927;28;20033;-67
2022/12/03 05:31:34;;;;;;;8.90;3.08;;;25.80;56.60;;;;;;5011001;28;20037;-67
2022/12/03 05:34:01;;;;;;;7.10;3.28;;;25.70;56.20;;;;;;5009011;28;20046;-65
2022/12/03 05:36:28;;;;;;;9.57;3.95;;;25.70;57.00;;;;;;5008029;28;20029;-66
2022/12/03 05:38:56;;;;;;;6.47;3.55;;;25.70;57.00;;;;;;5007863;28;20099;-66
2022/12/03 05:44:08;;;;;;;11.52;4.30;;;25.80;56.00;;;;;;5011015;28;20056;-65
2022/12/03 05:46:35;;;;;;;9.48;3.90;;;25.70;57.00;;;;;;5011403;28;20022;-66
2022/12/03 05:49:03;;;;;;;10.63;3.47;;;25.70;57.00;;;;;;5010067;28;20522;-66
2022/12/03 05:51:30;;;;;;;7.50;3.30;;;26.00;57.70;;;;;;5007813;28;20018;-66
2022/12/03 05:53:57;;;;;;;8.15;2.97;;;26.10;55.60;;;;;;5006987;28;20033;-65
2022/12/03 05:56:24;;;;;;;7.85;2.47;;;26.30;55.40;;;;;;5010232;28;20108;-66
2022/12/03 05:58:51;;;;;;;5.20;2.28;;;26.30;55.60;;;;;;5010456;28;20089;-66
2022/12/03 06:01:19;;;;;;;7.03;2.50;;;26.30;55.60;;;;;;5016567;28;20045;-66
2022/12/03 06:03:46;;;;;;;6.38;2.60;;;26.30;55.20;;;;;;5009759;28;20022;-66
2022/12/03 06:06:13;;;;;;;7.97;3.20;;;26.20;54.80;;;;;;5010028;28;20208;-66
2022/12/03 06:08:40;;;;;;;4.95;2.47;;;26.10;55.10;;;;;;5009406;28;20018;-66
2022/12/03 06:11:08;;;;;;;5.82;2.08;;;26.20;55.00;;;;;;5007890;28;20034;-67
2022/12/03 06:13:35;;;;;;;6.68;1.90;;;26.20;55.40;;;;;;5009034;28;20025;-66
2022/12/03 06:16:02;;;;;;;7.47;2.67;;;26.10;55.10;;;;;;5010236;28;20077;-66
2022/12/03 06:18:32;;;;;;;6.45;1.77;;;25.80;55.60;;;;;;5009343;28;20032;-65
2022/12/03 06:20:59;;;;;;;7.53;2.72;;;25.60;55.80;;;;;;5007929;28;20030;-66
2022/12/03 06:23:26;;;;;;;6.22;3.10;;;25.40;55.90;;;;;;5010208;28;20017;-66
2022/12/03 06:25:54;;;;;;;6.32;2.50;;;25.60;56.30;;;;;;5009044;28;20402;-66
2022/12/03 06:28:21;;;;;;;6.68;2.85;;;25.80;56.00;;;;;;4998554;28;20018;-67
2022/12/03 06:30:48;;;;;;;5.95;2.35;;;25.70;56.00;;;;;;5007901;28;20061;-67
2022/12/03 06:33:15;;;;;;;7.97;3.72;;;25.60;56.30;;;;;;5008707;28;20052;-66
2022/12/03 06:35:42;;;;;;;6.50;3.92;;;25.50;56.30;;;;;;5008918;28;20594;-66
2022/12/03 06:38:10;;;;;;;6.70;4.75;;;25.50;57.20;;;;;;5008594;28;20032;-66
2022/12/03 06:40:37;;;;;;;7.28;2.05;;;25.70;57.00;;;;;;5010062;28;20412;-66
2022/12/03 06:43:04;;;;;;;2.80;1.00;;;25.70;56.10;;;;;;5008960;28;20057;-66
2022/12/03 06:45:32;;;;;;;5.80;1.55;;;25.60;55.50;;;;;;5009764;28;20053;-66
2022/12/03 06:47:59;;;;;;;6.50;1.92;;;25.60;56.10;;;;;;5007551;28;20078;-66
2022/12/03 06:50:26;;;;;;;6.03;1.60;;;25.80;55.40;;;;;;5008109;28;20040;-66
2022/12/03 06:52:53;;;;;;;5.13;1.17;;;25.70;55.70;;;;;;5008607;28;20030;-66
2022/12/03 06:55:21;;;;;;;4.28;1.73;;;25.70;56.30;;;;;;4995254;28;20032;-65
2022/12/03 06:57:48;;;;;;;5.00;1.63;;;25.60;56.10;;;;;;5006762;28;20033;-66
2022/12/03 07:00:15;;;;;;;3.15;1.40;;;25.30;56.50;;;;;;5005579;28;20034;-65
2022/12/03 07:02:43;;;;;;;3.08;1.05;;;25.20;57.10;;;;;;5007008;28;20403;-66
2022/12/03 07:05:10;;;;;;;5.68;0.90;;;25.00;57.20;;;;;;5005769;28;20045;-66
2022/12/03 07:07:37;;;;;;;6.70;1.52;;;25.00;57.70;;;;;;5007195;28;20037;-66
2022/12/03 07:10:05;;;;;;;3.38;1.10;;;24.90;58.30;;;;;;5005211;28;20029;-66
2022/12/03 07:12:33;;;;;;;6.10;1.13;;;25.10;58.30;;;;;;5007034;28;20037;-66
2022/12/03 07:15:00;;;;;;;4.60;1.17;;;25.20;58.40;;;;;;4998391;28;20030;-65
2022/12/03 07:17:27;;;;;;;7.50;1.77;;;25.10;58.10;;;;;;5006118;28;20032;-65
2022/12/03 07:19:54;;;;;;;2.22;1.10;;;25.00;58.90;;;;;;5002916;28;20046;-65
2022/12/03 07:22:21;;;;;;;3.33;0.90;;;24.80;59.00;;;;;;5005728;28;20057;-66
2022/12/03 07:24:49;;;;;;;6.03;1.20;;;24.80;59.20;;;;;;5006687;28;20092;-65
2022/12/03 07:27:16;;;;;;;6.65;1.20;;;24.80;59.90;;;;;;5002152;28;20080;-66
2022/12/03 07:29:43;;;;;;;5.45;1.10;;;24.50;60.70;;;;;;5005308;28;20054;-65
2022/12/03 07:32:10;;;;;;;3.92;1.23;;;24.30;61.10;;;;;;5004849;28;20029;-65
2022/12/03 07:34:38;;;;;;;3.97;0.90;;;24.30;61.50;;;;;;5005188;28;20053;-65
2022/12/03 07:37:05;;;;;;;3.67;1.35;;;24.20;61.90;;;;;;5006605;28;20038;-65
2022/12/03 07:39:32;;;;;;;5.00;1.20;;;24.10;62.30;;;;;;5005502;28;20036;-65
2022/12/03 07:41:59;;;;;;;2.78;1.10;;;23.90;62.90;;;;;;5003298;28;20030;-65
2022/12/03 07:44:27;;;;;;;6.10;1.73;;;23.70;63.50;;;;;;5004732;28;20537;-65
2022/12/03 07:46:54;;;;;;;3.88;1.13;;;23.40;64.80;;;;;;5004218;28;20037;-66
2022/12/03 07:49:21;;;;;;;5.65;1.38;;;23.10;65.50;;;;;;5004776;28;20026;-66
2022/12/03 07:51:58;;;;;;;4.65;1.13;;;23.00;65.90;;;;;;5006654;28;20038;-64
2022/12/03 07:54:26;;;;;;;5.43;1.42;;;22.80;66.30;;;;;;5000495;28;20480;-65
2022/12/03 07:56:53;;;;;;;4.10;0.93;;;22.70;67.10;;;;;;5004826;28;20073;-65
2022/12/03 07:59:20;;;;;;;4.70;0.90;;;22.60;67.60;;;;;;5005611;28;20105;-65
2022/12/03 08:01:47;;;;;;;4.43;1.23;;;22.40;68.40;;;;;;4996958;28;20052;-64
2022/12/03 08:04:17;;;;;;;4.75;0.98;;;22.30;68.90;;;;;;5004034;28;20073;-65
2022/12/03 08:06:45;;;;;;;4.78;1.08;;;22.10;69.70;;;;;;5003778;28;20022;-66
2022/12/03 08:09:13;;;;;;;5.20;1.00;;;22.00;70.50;;;;;;5003105;28;20073;-66
2022/12/03 08:11:41;;;;;;;5.50;1.05;;;21.90;72.20;;;;;;5004405;28;20030;-67
2022/12/03 08:14:21;;;;;;;3.40;1.05;;;21.80;72.70;;;;;;5004249;28;20033;-62
2022/12/03 08:16:48;;;;;;;6.22;1.30;;;21.70;74.00;;;;;;5005666;28;20469;-67
2022/12/03 08:19:17;;;;;;;5.78;1.17;;;21.60;75.30;;;;;;5004959;28;20034;-62
2022/12/03 08:21:44;;;;;;;5.20;1.38;;;21.50;76.60;;;;;;5005735;28;20092;-66
2022/12/03 08:24:20;;;;;;;1.60;0.82;;;21.40;76.70;;;;;;5006742;28;20037;-65
2022/12/03 08:26:48;;;;;;;8.07;1.15;;;21.30;77.30;;;;;;5005832;28;20034;-66
2022/12/03 08:29:18;;;;;;;4.32;1.13;;;21.20;75.60;;;;;;5006722;28;20032;-66
2022/12/03 08:31:53;;;;;;;4.80;1.00;;;21.10;74.80;;;;;;5005080;28;20029;-66
2022/12/03 08:34:26;;;;;;;3.47;1.02;;;21.00;75.00;;;;;;5006480;28;20187;-66
2022/12/03 08:37:01;;;;;;;4.57;1.27;;;20.90;75.80;;;;;;5006873;28;20395;-66
2022/12/03 08:39:32;;;;;;;5.45;1.23;;;20.80;77.10;;;;;;4999968;28;20022;-65
2022/12/03 08:42:42;;;;;;;3.30;1.00;;;20.70;77.40;;;;;;5004633;28;20477;-66
2022/12/03 08:45:39;;;;;;;3.97;0.82;;;20.60;77.80;;;;;;5007468;28;20030;-66
2022/12/03 08:48:37;;;;;;;5.10;1.65;;;20.50;78.10;;;;;;5007803;28;20129;-66
2022/12/03 08:51:25;;;;;;;2.65;0.80;;;20.40;77.60;;;;;;5001594;28;20033;-65
2022/12/03 08:53:59;;;;;;;2.83;0.95;;;20.20;77.60;;;;;;5011289;28;20144;-66
2022/12/03 08:56:28;;;;;;;2.53;0.70;;;20.10;78.40;;;;;;5007755;28;20814;-66
2022/12/03 08:58:59;;;;;;;5.53;1.02;;;20.00;79.50;;;;;;5004133;28;20032;-64
2022/12/03 09:01:31;;;;;;;2.05;0.80;;;19.90;80.90;;;;;;5007378;28;20042;-65
2022/12/03 09:04:22;;;;;;;2.03;0.80;;;19.80;82.90;;;;;;5000419;28;20030;-63
2022/12/03 09:06:51;;;;;;;3.20;0.80;;;19.70;84.20;;;;;;4999959;28;20033;-64
2022/12/03 09:09:18;;;;;;;3.65;1.02;;;19.60;85.50;;;;;;5004405;28;20037;-63
2022/12/03 09:11:46;;;;;;;2.70;1.00;;;19.50;87.10;;;;;;5007610;28;20026;-64
2022/12/03 09:14:14;;;;;;;8.35;0.80;;;19.40;88.20;;;;;;5006200;28;20124;-65
2022/12/03 09:16:41;;;;;;;7.15;1.17;;;19.30;89.30;;;;;;5006483;28;20108;-65
2022/12/03 09:19:08;;;;;;;3.97;1.35;;;19.30;90.30;;;;;;5005173;28;20038;-63
2022/12/03 09:21:35;;;;;;;3.60;1.30;;;19.20;90.60;;;;;;5010343;28;20045;-64
2022/12/03 09:24:03;;;;;;;3.13;1.33;;;19.10;90.90;;;;;;5021272;28;20645;-65
2022/12/03 09:26:30;;;;;;;3.03;0.90;;;19.00;91.40;;;;;;5019669;28;20025;-64
2022/12/03 09:28:57;;;;;;;5.50;1.00;;;19.00;92.00;;;;;;5003073;28;20543;-65
2022/12/03 09:31:24;;;;;;;7.03;1.13;;;18.90;92.40;;;;;;5007808;28;20021;-65
2022/12/03 09:33:51;;;;;;;4.35;1.33;;;18.80;93.00;;;;;;5006255;28;20559;-65
2022/12/03 09:36:19;;;;;;;5.72;1.42;;;18.70;93.40;;;;;;5005270;28;20025;-66
2022/12/03 09:38:46;;;;;;;4.40;1.13;;;18.60;93.80;;;;;;4994275;28;20407;-65
2022/12/03 09:41:13;;;;;;;2.78;0.90;;;18.60;94.30;;;;;;4989354;28;20142;-65
2022/12/03 09:43:41;;;;;;;8.40;1.20;;;18.50;94.60;;;;;;5006516;28;20040;-65
2022/12/03 09:46:08;;;;;;;2.60;0.80;;;18.40;95.40;;;;;;5005106;28;20029;-64
2022/12/03 09:48:36;;;;;;;4.97;1.33;;;18.20;95.80;;;;;;5005781;28;20085;-65
2022/12/03 09:51:04;;;;;;;5.05;1.10;;;18.20;96.20;;;;;;5014457;28;20033;-65
2022/12/03 09:53:32;;;;;;;4.40;1.23;;;18.20;96.20;;;;;;5011154;28;20096;-64
2022/12/03 09:56:00;;;;;;;5.38;1.23;;;18.10;96.70;;;;;;5008818;28;20034;-65
2022/12/03 09:58:29;;;;;;;3.80;1.30;;;18.00;96.70;;;;;;5008946;28;20514;-65
2022/12/03 10:00:56;;;;;;;2.15;0.90;;;17.90;97.20;;;;;;5006591;28;20100;-64
2022/12/03 10:03:31;;;;;;;4.82;1.48;;;17.80;97.70;;;;;;5007815;28;20369;-62
2022/12/03 10:05:57;;;;;;;;;;;17.70;97.80;;;;;;5007887;28;20038;-62
2022/12/03 10:08:26;;;;;;;4.95;1.25;;;17.60;98.30;;;;;;5008928;28;19943;-62
2022/12/03 10:10:55;;;;;;;4.78;1.30;;;17.60;99.10;;;;;;5008607;28;20104;-61
2022/12/03 10:13:30;;;;;;;9.52;1.40;;;17.60;99.30;;;;;;5008944;28;20387;-62
2022/12/03 10:16:00;;;;;;;7.93;1.48;;;17.60;99.60;;;;;;5008398;28;20042;-62
2022/12/03 10:18:30;;;;;;;5.30;1.48;;;17.60;99.70;;;;;;5007978;28;20061;-62
2022/12/03 10:20:57;;;;;;;5.70;1.40;;;17.60;99.90;;;;;;5008571;28;20041;-62
2022/12/03 10:23:30;;;;;;;6.93;1.10;;;17.50;99.90;;;;;;5007360;28;20026;-62
2022/12/03 10:26:01;;;;;;;6.72;2.72;;;17.40;99.90;;;;;;5008113;28;20033;-62
2022/12/03 10:28:37;;;;;;;7.75;1.48;;;17.40;99.90;;;;;;5008345;28;20096;-63
2022/12/03 10:31:09;;;;;;;3.63;1.10;;;17.40;99.90;;;;;;5008033;28;20498;-63
2022/12/03 10:33:41;;;;;;;5.63;1.30;;;17.40;99.90;;;;;;5007168;28;20395;-63
2022/12/03 10:36:24;;;;;;;4.53;1.30;;;17.30;99.90;;;;;;5008674;28;20119;-62
2022/12/03 10:39:15;;;;;;;7.38;1.13;;;17.10;99.90;;;;;;5008129;28;20105;-63
2022/12/03 10:41:44;;;;;;;7.03;1.60;;;17.10;99.90;;;;;;5005242;28;20037;-63
2022/12/03 10:44:18;;;;;;;5.95;1.15;;;17.00;99.90;;;;;;5009012;28;20025;-63
2022/12/03 10:46:46;;;;;;;;;;;17.00;99.90;;;;;;5008299;28;20037;-62
2022/12/03 10:49:19;;;;;;;4.05;1.05;;;16.90;99.90;;;;;;5007749;28;19910;-62
2022/12/03 10:51:47;;;;;;;6.63;1.27;;;16.80;99.90;;;;;;5008204;28;20033;-62
2022/12/03 10:54:22;;;;;;;4.53;1.13;;;16.80;99.90;;;;;;5007867;28;20095;-63
2022/12/03 10:56:51;;;;;;;6.63;1.48;;;16.70;99.90;;;;;;4996859;28;20033;-63
2022/12/03 10:59:24;;;;;;;7.50;1.77;;;16.80;99.90;;;;;;5007666;28;20800;-63
2022/12/03 11:01:52;;;;;;;3.75;1.48;;;16.80;99.90;;;;;;5007622;28;20062;-63
2022/12/03 11:04:27;;;;;;;4.03;1.13;;;16.80;99.90;;;;;;5007329;28;20029;-63
2022/12/03 11:06:55;;;;;;;5.45;1.15;;;16.80;99.90;;;;;;5007403;28;20038;-63
2022/12/03 11:09:27;;;;;;;6.93;1.30;;;16.80;99.90;;;;;;5007861;28;20026;-62
2022/12/03 11:11:54;;;;;;;7.43;1.08;;;16.80;99.90;;;;;;5008060;28;20030;-62
2022/12/03 11:14:56;;;;;;;4.90;1.23;;;16.70;99.90;;;;;;5007557;28;20026;-62
2022/12/03 11:17:43;;;;;;;6.25;1.60;;;16.60;99.90;;;;;;5000309;28;20026;-62
2022/12/03 11:20:30;;;;;;;6.72;1.95;;;16.50;99.90;;;;;;4984577;28;20388;-62
2022/12/03 11:22:58;;;;;;;5.53;1.52;;;16.50;99.90;;;;;;5007248;28;20057;-62
2022/12/03 11:25:25;;;;;;;6.75;1.70;;;16.60;99.90;;;;;;5007346;28;20036;-62
2022/12/03 11:28:11;;;;;;;5.10;1.35;;;16.60;99.90;;;;;;5007310;28;20030;-62
2022/12/03 11:30:51;;;;;;;5.05;2.00;;;16.70;99.90;;;;;;5007520;28;20061;-63
2022/12/03 11:33:24;;;;;;;3.80;1.42;;;16.80;99.90;;;;;;5007646;28;20426;-63
2022/12/03 11:36:03;;;;;;;6.35;1.70;;;16.90;99.90;;;;;;5007119;28;20034;-62
2022/12/03 11:38:50;;;;;;;7.47;1.55;;;16.80;99.90;;;;;;5002151;28;20068;-63
2022/12/03 11:41:25;;;;;;;5.90;2.72;;;16.90;99.90;;;;;;5007166;28;20501;-63
2022/12/03 11:43:54;;;;;;;5.78;1.58;;;16.90;99.90;;;;;;5007407;28;20030;-63
2022/12/03 11:46:43;;;;;;;8.07;2.08;;;16.80;99.90;;;;;;5007334;28;20811;-63
2022/12/03 11:49:36;;;;;;;6.57;1.52;;;16.70;99.90;;;;;;5007552;28;20026;-64
2022/12/03 11:52:20;;;;;;;7.25;1.95;;;16.70;99.90;;;;;;5005646;28;20038;-62
2022/12/03 11:54:54;;;;;;;8.27;1.90;;;16.60;99.90;;;;;;4990957;28;20507;-64
2022/12/03 11:57:37;;;;;;;6.00;2.00;;;16.60;99.90;;;;;;5007257;28;20107;-62
2022/12/03 12:00:20;;;;;;;3.88;1.80;;;16.50;99.90;;;;;;5007556;28;20188;-62
2022/12/03 12:02:49;;;;;;;6.63;1.73;;;16.30;99.90;;;;;;5006975;28;20026;-61
2022/12/03 12:05:29;;;;;;;5.45;1.75;;;16.30;99.90;;;;;;5006295;28;20053;-61
2022/12/03 12:07:56;;;;;;;3.88;1.70;;;16.20;99.90;;;;;;5006876;28;20030;-62
2022/12/03 12:10:43;;;;;;;7.07;2.10;;;16.10;99.90;;;;;;5006113;28;20450;-63
2022/12/03 12:13:36;;;;;;;7.22;1.63;;;16.00;99.90;;;;;;5007467;28;20118;-63
2022/12/03 12:16:04;;;;;;;6.13;2.08;;;16.00;99.90;;;;;;5006569;28;20037;-63
2022/12/03 12:18:43;;;;;;;7.53;2.03;;;16.00;99.90;;;;;;4993095;28;20037;-65
2022/12/03 12:21:48;;;;;;;7.03;1.85;;;16.00;99.90;;;;;;5006681;28;20165;-62
2022/12/03 12:24:45;;;;;;;6.05;1.92;;;16.00;99.90;;;;;;5004832;28;20065;-63
2022/12/03 12:27:32;;;;;;;6.18;2.03;;;15.90;99.90;;;;;;5009189;28;20479;-63
2022/12/03 12:30:09;;;;;;;6.43;2.17;;;15.90;99.90;;;;;;4996594;28;20026;-63
2022/12/03 12:32:50;;;;;;;7.57;1.75;;;15.90;99.90;;;;;;4993658;28;20479;-63
2022/12/03 12:35:31;;;;;;;5.35;1.80;;;15.90;99.90;;;;;;4993624;28;20096;-63
2022/12/03 12:38:19;;;;;;;8.95;2.42;;;15.90;99.90;;;;;;4993640;28;20442;-61
2022/12/03 12:40:49;;;;;;;5.05;1.88;;;15.90;99.90;;;;;;4997947;28;20116;-61
2022/12/03 12:43:25;;;;;;;11.27;3.63;;;15.80;99.90;;;;;;5019841;28;20370;-62
2022/12/03 12:45:58;;;;;;;5.18;2.45;;;15.80;99.90;;;;;;5011398;28;20475;-62
2022/12/03 12:48:30;;;;;;;7.82;2.67;;;15.80;99.90;;;;;;5005872;28;20073;-62
2022/12/03 12:51:17;;;;;;;4.82;2.60;;;15.70;99.90;;;;;;4997434;28;20026;-62
2022/12/03 12:53:45;;;;;;;6.13;1.77;;;15.70;99.90;;;;;;5009520;28;20026;-62
2022/12/03 12:56:31;;;;;;;8.32;1.90;;;15.60;99.90;;;;;;5007250;28;20033;-62
2022/12/03 12:59:09;;;;;;;5.80;1.75;;;15.60;99.90;;;;;;5006245;28;20092;-62
2022/12/03 13:01:36;;;;;;;5.90;1.83;;;15.60;99.90;;;;;;5009354;28;20038;-63
2022/12/03 13:04:14;;;;;;;6.57;2.15;;;15.60;99.90;;;;;;5007694;28;20092;-62
2022/12/03 13:06:42;;;;;;;6.70;1.60;;;15.70;99.90;;;;;;5008756;28;20029;-62
2022/12/03 13:09:25;;;;;;;4.22;1.38;;;15.70;99.90;;;;;;5004500;28;20088;-62
2022/12/03 13:11:58;;;;;;;9.85;1.80;;;15.50;99.90;;;;;;5002834;28;20495;-62
2022/12/03 13:14:32;;;;;;;7.50;1.93;;;15.50;99.90;;;;;;5008761;28;20030;-62
2022/12/03 13:17:06;;;;;;;6.78;1.42;;;15.40;99.90;;;;;;5010084;28;20760;-62
2022/12/03 13:19:34;;;;;;;13.65;2.15;;;15.40;99.90;;;;;;5005498;28;20698;-62
2022/12/03 13:22:10;;;;;;;6.18;1.60;;;15.20;99.90;;;;;;5006135;28;20063;-63
2022/12/03 13:24:58;;;;;;;7.95;1.90;;;15.10;99.90;;;;;;5008121;28;20026;-62